sensor_id;sensor_type;location;lat;lon;timestamp;P1;P2;P0
74434;PMS7003;62867;52.038;29.256;2023-08-06T00:01:05;5.2;5;3.2
74434;PMS7003;62867;52.038;29.256;2023-08-06T00:06:05;4.8;4.2;3
74434;PMS7003;62867;52.038;29.256;2023-08-06T00:10:25;3.8;3.8;2.4
74434;PMS7003;62867;52.038;29.256;2023-08-06T00:15:25;5.4;4.6;3
74434;PMS7003;62867;52.038;29.256;2023-08-06T00:21:05;6;5.8;3.4
74434;PMS7003;62867;52.038;29.256;2023-08-06T00:25:19;5.6;5;3.2
74434;PMS7003;62867;52.038;29.256;2023-08-06T00:30:41;5.8;5.6;4
74434;PMS7003;62867;52.038;29.256;2023-08-06T00:35:21;5.6;5.6;3.4
74434;PMS7003;62867;52.038;29.256;2023-08-06T00:40:55;7.8;7;4
74434;PMS7003;62867;52.038;29.256;2023-08-06T00:46:03;7.4;7;4.4
74434;PMS7003;62867;52.038;29.256;2023-08-06T00:50:19;8.3;8.3;4
74434;PMS7003;62867;52.038;29.256;2023-08-06T00:56:05;7.4;7;4.2
74434;PMS7003;62867;52.038;29.256;2023-08-06T01:00:25;7.4;7;4.4
74434;PMS7003;62867;52.038;29.256;2023-08-06T01:06:05;8.2;8;3.8
74434;PMS7003;62867;52.038;29.256;2023-08-06T01:10:51;8;7.8;4
74434;PMS7003;62867;52.038;29.256;2023-08-06T01:15:55;7.2;7;4
74434;PMS7003;62867;52.038;29.256;2023-08-06T01:20:47;8.2;7.8;3.6
74434;PMS7003;62867;52.038;29.256;2023-08-06T01:25:55;8.6;7.6;3.6
74434;PMS7003;62867;52.038;29.256;2023-08-06T01:30:20;5.4;5.4;3.6
74434;PMS7003;62867;52.038;29.256;2023-08-06T01:35:25;6.6;6.4;3
74434;PMS7003;62867;52.038;29.256;2023-08-06T01:41:05;7.6;7.4;3.6
74434;PMS7003;62867;52.038;29.256;2023-08-06T01:45:33;6.6;6.2;3.2
74434;PMS7003;62867;52.038;29.256;2023-08-06T01:50:37;9.3;8.3;4
74434;PMS7003;62867;52.038;29.256;2023-08-06T01:56:05;9.6;9.4;4.4
74434;PMS7003;62867;52.038;29.256;2023-08-06T02:00:51;9.6;9.2;4.2
74434;PMS7003;62867;52.038;29.256;2023-08-06T02:05:47;9;8.4;4
74434;PMS7003;62867;52.038;29.256;2023-08-06T02:10:19;7.8;7;3.8
74434;PMS7003;62867;52.038;29.256;2023-08-06T02:16:03;8.8;8.4;3.6
74434;PMS7003;62867;52.038;29.256;2023-08-06T02:20:54;9.8;9;4.4
74434;PMS7003;62867;52.038;29.256;2023-08-06T02:25:37;9.6;9.4;4.6
74434;PMS7003;62867;52.038;29.256;2023-08-06T02:31:05;9.4;9.2;4.2
74434;PMS7003;62867;52.038;29.256;2023-08-06T02:36:05;8.8;8.6;2.8
74434;PMS7003;62867;52.038;29.256;2023-08-06T02:40:27;8.4;8.2;3.8
74434;PMS7003;62867;52.038;29.256;2023-08-06T02:45:27;8.8;8.6;3.4
74434;PMS7003;62867;52.038;29.256;2023-08-06T02:50:47;9.2;9;4.4
74434;PMS7003;62867;52.038;29.256;2023-08-06T02:55:47;9.5;8.8;3.5
74434;PMS7003;62867;52.038;29.256;2023-08-06T03:00:58;8.2;7.6;3.6
74434;PMS7003;62867;52.038;29.256;2023-08-06T03:05:29;8.6;8.4;3.8
74434;PMS7003;62867;52.038;29.256;2023-08-06T03:10:55;7.4;7;3.8
74434;PMS7003;62867;52.038;29.256;2023-08-06T03:15:25;9.8;9.4;4.4
74434;PMS7003;62867;52.038;29.256;2023-08-06T03:20:33;10.2;9.8;3.2
74434;PMS7003;62867;52.038;29.256;2023-08-06T03:26:03;9;8.6;3.6
74434;PMS7003;62867;52.038;29.256;2023-08-06T03:30:47;8;7;4.2
74434;PMS7003;62867;52.038;29.256;2023-08-06T03:36:05;9.4;8.6;3.8
74434;PMS7003;62867;52.038;29.256;2023-08-06T03:40:41;6.6;6.6;3.4
74434;PMS7003;62867;52.038;29.256;2023-08-06T03:45:19;6.6;6.4;4.6
74434;PMS7003;62867;52.038;29.256;2023-08-06T03:50:31;7.4;7;3.8
74434;PMS7003;62867;52.038;29.256;2023-08-06T03:55:19;5.8;5;3.8
74434;PMS7003;62867;52.038;29.256;2023-08-06T04:00:37;5.8;5.8;3.6
74434;PMS7003;62867;52.038;29.256;2023-08-06T04:05:33;6;5.4;3.4
74434;PMS7003;62867;52.038;29.256;2023-08-06T04:11:05;6;5.6;3.4
74434;PMS7003;62867;52.038;29.256;2023-08-06T04:16:00;7.8;6;4.2
74434;PMS7003;62867;52.038;29.256;2023-08-06T04:20:42;6;5.2;4
74434;PMS7003;62867;52.038;29.256;2023-08-06T04:26:05;7;5.8;4
74434;PMS7003;62867;52.038;29.256;2023-08-06T04:30:19;6.6;6.4;4.6
74434;PMS7003;62867;52.038;29.256;2023-08-06T04:35:37;6.6;5.8;4
74434;PMS7003;62867;52.038;29.256;2023-08-06T04:40:55;6.4;5.6;4.2
74434;PMS7003;62867;52.038;29.256;2023-08-06T04:46:05;7.2;6.8;4.4
74434;PMS7003;62867;52.038;29.256;2023-08-06T04:50:19;7.2;6.2;4.4
74434;PMS7003;62867;52.038;29.256;2023-08-06T04:55:25;6.5;5.3;3.3
74434;PMS7003;62867;52.038;29.256;2023-08-06T05:01:05;6.2;6.2;4.4
74434;PMS7003;62867;52.038;29.256;2023-08-06T05:06:05;6.6;6.2;3.8
74434;PMS7003;62867;52.038;29.256;2023-08-06T05:10:47;5.4;5.2;4.4
74434;PMS7003;62867;52.038;29.256;2023-08-06T05:15:43;6;5.4;4
74434;PMS7003;62867;52.038;29.256;2023-08-06T05:21:03;6.4;5.4;4.2
74434;PMS7003;62867;52.038;29.256;2023-08-06T05:25:47;7;5.8;4.2
74434;PMS7003;62867;52.038;29.256;2023-08-06T05:30:33;7.6;5.6;4.2
74434;PMS7003;62867;52.038;29.256;2023-08-06T05:35:21;7.4;7;5
74434;PMS7003;62867;52.038;29.256;2023-08-06T05:40:53;8.4;7.4;4.8
74434;PMS7003;62867;52.038;29.256;2023-08-06T05:46:05;6.4;5.8;4.2
74434;PMS7003;62867;52.038;29.256;2023-08-06T05:50:19;6.6;5.6;3.6
74434;PMS7003;62867;52.038;29.256;2023-08-06T05:55:55;6.5;5.8;4
74434;PMS7003;62867;52.038;29.256;2023-08-06T06:00:37;6.8;5.8;4.4
74434;PMS7003;62867;52.038;29.256;2023-08-06T06:06:05;7.4;6.6;4.6
74434;PMS7003;62867;52.038;29.256;2023-08-06T06:10:19;6.4;6.2;4.6
74434;PMS7003;62867;52.038;29.256;2023-08-06T06:16:05;6.6;6;4.8
74434;PMS7003;62867;52.038;29.256;2023-08-06T06:21:05;9.2;6.8;5
74434;PMS7003;62867;52.038;29.256;2023-08-06T06:25:41;6.8;6.4;5
74434;PMS7003;62867;52.038;29.256;2023-08-06T06:30:27;7.8;6.8;4.8
74434;PMS7003;62867;52.038;29.256;2023-08-06T06:35:19;7.4;6.8;4.6
74434;PMS7003;62867;52.038;29.256;2023-08-06T06:41:05;7.6;6.2;4.4
74434;PMS7003;62867;52.038;29.256;2023-08-06T06:45:47;8;8;5.4
74434;PMS7003;62867;52.038;29.256;2023-08-06T06:50:39;8.2;7.4;5
74434;PMS7003;62867;52.038;29.256;2023-08-06T06:56:05;6.8;6.3;4.8
74434;PMS7003;62867;52.038;29.256;2023-08-06T07:01:05;8.4;8;5.6
74434;PMS7003;62867;52.038;29.256;2023-08-06T07:05:19;8.2;7.2;5.2
74434;PMS7003;62867;52.038;29.256;2023-08-06T07:10:33;9;8.2;6
74434;PMS7003;62867;52.038;29.256;2023-08-06T07:15:47;7.2;6.6;4.8
74434;PMS7003;62867;52.038;29.256;2023-08-06T07:20:47;8.4;7;5
74434;PMS7003;62867;52.038;29.256;2023-08-06T07:25:55;8.6;8;4.8
74434;PMS7003;62867;52.038;29.256;2023-08-06T07:30:38;10.2;9.2;7.6
74434;PMS7003;62867;52.038;29.256;2023-08-06T07:35:37;10.4;8.6;5.4
74434;PMS7003;62867;52.038;29.256;2023-08-06T07:40:47;7.6;7.2;5
74434;PMS7003;62867;52.038;29.256;2023-08-06T07:45:33;7.6;7.2;4.6
74434;PMS7003;62867;52.038;29.256;2023-08-06T07:51:03;7.2;6.8;4.6
74434;PMS7003;62867;52.038;29.256;2023-08-06T07:55:48;7;6.6;4.4
74434;PMS7003;62867;52.038;29.256;2023-08-06T08:01:05;6.3;6.3;3.5
74434;PMS7003;62867;52.038;29.256;2023-08-06T08:05:43;7.4;6.2;3.8
74434;PMS7003;62867;52.038;29.256;2023-08-06T08:10:35;9;8.2;4.6
74434;PMS7003;62867;52.038;29.256;2023-08-06T08:15:27;9.6;8.2;4.6
74434;PMS7003;62867;52.038;29.256;2023-08-06T08:20:33;9;8;5
74434;PMS7003;62867;52.038;29.256;2023-08-06T08:25:19;7.6;7;4.8
74434;PMS7003;62867;52.038;29.256;2023-08-06T08:30:55;5.8;5.4;3
74434;PMS7003;62867;52.038;29.256;2023-08-06T08:36:03;6;5.4;4.2
74434;PMS7003;62867;52.038;29.256;2023-08-06T08:40:50;6;5.8;3.8
74434;PMS7003;62867;52.038;29.256;2023-08-06T08:45:39;6.4;6;3.8
74434;PMS7003;62867;52.038;29.256;2023-08-06T08:51:05;6.6;5.6;3.8
74434;PMS7003;62867;52.038;29.256;2023-08-06T08:55:33;7.8;7.2;5.4
74434;PMS7003;62867;52.038;29.256;2023-08-06T09:00:19;6.5;6.3;4
74434;PMS7003;62867;52.038;29.256;2023-08-06T09:05:39;9.4;8;5
74434;PMS7003;62867;52.038;29.256;2023-08-06T09:10:55;9.2;8.4;5.4
74434;PMS7003;62867;52.038;29.256;2023-08-06T09:15:25;8.4;8;4.6
74434;PMS7003;62867;52.038;29.256;2023-08-06T09:20:25;8;7.4;4.4
74434;PMS7003;62867;52.038;29.256;2023-08-06T09:26:05;7.6;7.2;4.4
74434;PMS7003;62867;52.038;29.256;2023-08-06T09:31:05;7.2;6.4;4.6
74434;PMS7003;62867;52.038;29.256;2023-08-06T09:35:19;6;4.6;3.4
74434;PMS7003;62867;52.038;29.256;2023-08-06T09:40:41;6.4;6.2;4
74434;PMS7003;62867;52.038;29.256;2023-08-06T09:46:10;9;8.4;6
74434;PMS7003;62867;52.038;29.256;2023-08-06T09:50:31;8;7;4.2
74434;PMS7003;62867;52.038;29.256;2023-08-06T09:56:05;6.6;5.4;3.6
74434;PMS7003;62867;52.038;29.256;2023-08-06T10:00:49;8;7.3;5
74434;PMS7003;62867;52.038;29.256;2023-08-06T10:05:53;6.8;6.4;4.2
74434;PMS7003;62867;52.038;29.256;2023-08-06T10:10:21;7.2;7.2;4.8
74434;PMS7003;62867;52.038;29.256;2023-08-06T10:15:49;7;5.8;4.4
74434;PMS7003;62867;52.038;29.256;2023-08-06T10:20:35;6.8;6;3.8
74434;PMS7003;62867;52.038;29.256;2023-08-06T10:25:25;6.2;5.8;4.6
74434;PMS7003;62867;52.038;29.256;2023-08-06T10:31:03;6;5.8;4.2
74434;PMS7003;62867;52.038;29.256;2023-08-06T10:35:35;7.2;7;5.6
74434;PMS7003;62867;52.038;29.256;2023-08-06T10:41:03;5.8;5;4.2
74434;PMS7003;62867;52.038;29.256;2023-08-06T10:45:51;6.4;6.4;5.2
74434;PMS7003;62867;52.038;29.256;2023-08-06T10:50:51;7;7;5.2
74434;PMS7003;62867;52.038;29.256;2023-08-06T10:55:22;6.6;6.2;4.8
74434;PMS7003;62867;52.038;29.256;2023-08-06T11:00:37;7;6.8;5
74434;PMS7003;62867;52.038;29.256;2023-08-06T11:06:03;6.4;6.2;4.6
74434;PMS7003;62867;52.038;29.256;2023-08-06T11:10:41;7;6.6;5.4
74434;PMS7003;62867;52.038;29.256;2023-08-06T11:15:37;6;6;5
74434;PMS7003;62867;52.038;29.256;2023-08-06T11:21:03;5.8;5.8;4.8
74434;PMS7003;62867;52.038;29.256;2023-08-06T11:25:47;7.4;7.2;5.6
74434;PMS7003;62867;52.038;29.256;2023-08-06T11:30:19;9.4;9.2;7.4
74434;PMS7003;62867;52.038;29.256;2023-08-06T11:35:33;8.8;8.8;7.2
74434;PMS7003;62867;52.038;29.256;2023-08-06T11:40:47;6.4;6.4;4.8
74434;PMS7003;62867;52.038;29.256;2023-08-06T11:45:49;5;5;4.2
74434;PMS7003;62867;52.038;29.256;2023-08-06T11:50:35;5.4;5.2;4
74434;PMS7003;62867;52.038;29.256;2023-08-06T11:55:47;7.4;7.2;5.2
74434;PMS7003;62867;52.038;29.256;2023-08-06T12:00:25;6.5;6;4.8
74434;PMS7003;62867;52.038;29.256;2023-08-06T12:05:29;5.2;4.8;3.4
74434;PMS7003;62867;52.038;29.256;2023-08-06T12:10:27;5.8;5.6;4
74434;PMS7003;62867;52.038;29.256;2023-08-06T12:16:03;5.4;5;4
74434;PMS7003;62867;52.038;29.256;2023-08-06T12:20:49;5.4;5.2;4.4
74434;PMS7003;62867;52.038;29.256;2023-08-06T12:26:03;4;4;3.4
74434;PMS7003;62867;52.038;29.256;2023-08-06T12:30:19;6.2;5.6;4.4
74434;PMS7003;62867;52.038;29.256;2023-08-06T12:35:33;6;5.6;4.4
74434;PMS7003;62867;52.038;29.256;2023-08-06T12:40:25;4.6;4.6;3.4
74434;PMS7003;62867;52.038;29.256;2023-08-06T12:45:47;4.6;4.6;3.6
74434;PMS7003;62867;52.038;29.256;2023-08-06T12:50:39;4.2;4.2;3.2
74434;PMS7003;62867;52.038;29.256;2023-08-06T12:55:55;4.6;4.6;3.8
74434;PMS7003;62867;52.038;29.256;2023-08-06T13:01:05;4.4;4;3
74434;PMS7003;62867;52.038;29.256;2023-08-06T13:05:49;3.3;3.3;3
74434;PMS7003;62867;52.038;29.256;2023-08-06T13:10:25;3.8;3.8;2.6
74434;PMS7003;62867;52.038;29.256;2023-08-06T13:16:05;5;4.2;3.4
74434;PMS7003;62867;52.038;29.256;2023-08-06T13:20:33;4.2;4;2.8
74434;PMS7003;62867;52.038;29.256;2023-08-06T13:25:39;3.6;3.4;2.6
74434;PMS7003;62867;52.038;29.256;2023-08-06T13:30:35;4;4;3
74434;PMS7003;62867;52.038;29.256;2023-08-06T13:36:05;3.8;3.8;3.2
74434;PMS7003;62867;52.038;29.256;2023-08-06T13:40:19;4.2;4.2;3.6
74434;PMS7003;62867;52.038;29.256;2023-08-06T13:45:19;4.8;4.8;3.4
74434;PMS7003;62867;52.038;29.256;2023-08-06T13:50:49;5.6;5.6;4.4
74434;PMS7003;62867;52.038;29.256;2023-08-06T13:55:57;5.2;5.2;3.4
74434;PMS7003;62867;52.038;29.256;2023-08-06T14:01:09;4.8;4;3.2
74434;PMS7003;62867;52.038;29.256;2023-08-06T14:05:41;4.5;4.5;3.8
74434;PMS7003;62867;52.038;29.256;2023-08-06T14:11:07;4.4;4.4;3.4
74434;PMS7003;62867;52.038;29.256;2023-08-06T14:15:19;5.4;4.8;3.4
74434;PMS7003;62867;52.038;29.256;2023-08-06T14:21:07;5.2;4.4;3
74434;PMS7003;62867;52.038;29.256;2023-08-06T14:25:27;4.6;4.6;3.6
74434;PMS7003;62867;52.038;29.256;2023-08-06T14:30:57;5.6;5.6;4.4
74434;PMS7003;62867;52.038;29.256;2023-08-06T14:35:49;4;4;3
74434;PMS7003;62867;52.038;29.256;2023-08-06T14:40:51;4.2;3.8;2.8
74434;PMS7003;62867;52.038;29.256;2023-08-06T14:45:19;3.2;3.2;2.6
74434;PMS7003;62867;52.038;29.256;2023-08-06T14:50:33;4.6;4.2;3
74434;PMS7003;62867;52.038;29.256;2023-08-06T14:55:49;4;3.6;3.2
74434;PMS7003;62867;52.038;29.256;2023-08-06T15:00:33;3.6;3.4;2.8
74434;PMS7003;62867;52.038;29.256;2023-08-06T15:06:07;4;3.5;2
74434;PMS7003;62867;52.038;29.256;2023-08-06T15:11:07;5;4.8;3.4
74434;PMS7003;62867;52.038;29.256;2023-08-06T15:15:51;3.8;3.6;3
74434;PMS7003;62867;52.038;29.256;2023-08-06T15:20:25;4.8;4.4;3.6
74434;PMS7003;62867;52.038;29.256;2023-08-06T15:25:19;4.6;3.6;2.6
74434;PMS7003;62867;52.038;29.256;2023-08-06T15:31:07;4.8;4.8;3.6
74434;PMS7003;62867;52.038;29.256;2023-08-06T15:35:49;4.2;3.8;2.8
74434;PMS7003;62867;52.038;29.256;2023-08-06T15:41:05;4.2;4;2.8
74434;PMS7003;62867;52.038;29.256;2023-08-06T15:46:07;4.8;4.6;3.4
74434;PMS7003;62867;52.038;29.256;2023-08-06T15:51:07;4.2;4;3
74434;PMS7003;62867;52.038;29.256;2023-08-06T15:55:33;3.2;3.2;1.8
74434;PMS7003;62867;52.038;29.256;2023-08-06T16:00:33;3.8;3.8;2.8
74434;PMS7003;62867;52.038;29.256;2023-08-06T16:05:49;4;4;2.8
74434;PMS7003;62867;52.038;29.256;2023-08-06T16:10:49;4.2;4.2;3.2
74434;PMS7003;62867;52.038;29.256;2023-08-06T16:15:39;6.2;6.2;4.6
74434;PMS7003;62867;52.038;29.256;2023-08-06T16:20:40;6.2;5.6;3.6
74434;PMS7003;62867;52.038;29.256;2023-08-06T16:25:19;5.8;5.2;3.2
74434;PMS7003;62867;52.038;29.256;2023-08-06T16:30:19;5;4.6;3.4
74434;PMS7003;62867;52.038;29.256;2023-08-06T16:35:33;5.8;5.2;3
74434;PMS7003;62867;52.038;29.256;2023-08-06T16:41:07;6.6;6;4.2
74434;PMS7003;62867;52.038;29.256;2023-08-06T16:45:49;4.8;4.6;3
74434;PMS7003;62867;52.038;29.256;2023-08-06T16:51:07;4.8;4.8;3.6
74434;PMS7003;62867;52.038;29.256;2023-08-06T16:55:41;6.4;5.8;4.2
74434;PMS7003;62867;52.038;29.256;2023-08-06T17:00:51;5.6;4.8;3.2
74434;PMS7003;62867;52.038;29.256;2023-08-06T17:05:43;6.5;6;3.8
74434;PMS7003;62867;52.038;29.256;2023-08-06T17:10:29;6.8;6.2;4.2
74434;PMS7003;62867;52.038;29.256;2023-08-06T17:15:43;6;5.8;4.6
74434;PMS7003;62867;52.038;29.256;2023-08-06T17:20:51;6;6;4.2
74434;PMS7003;62867;52.038;29.256;2023-08-06T17:25:52;6.6;6.2;4.4
74434;PMS7003;62867;52.038;29.256;2023-08-06T17:30:19;6;6;4.6
74434;PMS7003;62867;52.038;29.256;2023-08-06T17:35:25;6;5.4;4.2
74434;PMS7003;62867;52.038;29.256;2023-08-06T17:40:52;8.2;7.2;4.6
74434;PMS7003;62867;52.038;29.256;2023-08-06T17:46:07;7.8;7.2;5.2
74434;PMS7003;62867;52.038;29.256;2023-08-06T17:50:33;6.2;6;4.2
74434;PMS7003;62867;52.038;29.256;2023-08-06T17:55:41;6.8;6.6;4.8
74434;PMS7003;62867;52.038;29.256;2023-08-06T18:00:57;6.6;6.2;4.4
74434;PMS7003;62867;52.038;29.256;2023-08-06T18:05:33;8.2;7.6;5
74434;PMS7003;62867;52.038;29.256;2023-08-06T18:10:35;7.3;6.5;4.5
74434;PMS7003;62867;52.038;29.256;2023-08-06T18:15:51;5.8;5.6;4
74434;PMS7003;62867;52.038;29.256;2023-08-06T18:20:35;7;6.4;4.4
74434;PMS7003;62867;52.038;29.256;2023-08-06T18:26:07;7;6.8;4.6
74434;PMS7003;62867;52.038;29.256;2023-08-06T18:30:41;7.6;6.8;4.4
74434;PMS7003;62867;52.038;29.256;2023-08-06T18:36:08;6.6;5.8;3.8
74434;PMS7003;62867;52.038;29.256;2023-08-06T18:40:54;6.8;6;4
74434;PMS7003;62867;52.038;29.256;2023-08-06T18:46:07;7.2;5.4;3.8
74434;PMS7003;62867;52.038;29.256;2023-08-06T18:50:35;6.4;6.4;4.8
74434;PMS7003;62867;52.038;29.256;2023-08-06T18:55:57;7.8;6.4;4.4
74434;PMS7003;62867;52.038;29.256;2023-08-06T19:00:38;6.6;6.6;4.4
74434;PMS7003;62867;52.038;29.256;2023-08-06T19:05:51;6.4;5.8;4.2
74434;PMS7003;62867;52.038;29.256;2023-08-06T19:10:35;7.5;6.5;4
74434;PMS7003;62867;52.038;29.256;2023-08-06T19:15:19;5.8;5.6;3.6
74434;PMS7003;62867;52.038;29.256;2023-08-06T19:21:05;6.6;6.4;4.4
74434;PMS7003;62867;52.038;29.256;2023-08-06T19:25:31;6;5.4;3.8
74434;PMS7003;62867;52.038;29.256;2023-08-06T19:31:07;7;6.8;5
74434;PMS7003;62867;52.038;29.256;2023-08-06T19:36:07;7.2;6;4.4
74434;PMS7003;62867;52.038;29.256;2023-08-06T19:40:49;6.2;6.2;4.6
74434;PMS7003;62867;52.038;29.256;2023-08-06T19:45:19;6.6;5.8;4.4
74434;PMS7003;62867;52.038;29.256;2023-08-06T19:50:19;6;5.6;4
74434;PMS7003;62867;52.038;29.256;2023-08-06T19:56:07;5.8;5.6;4.2
74434;PMS7003;62867;52.038;29.256;2023-08-06T20:00:49;6.8;6.6;4.8
74434;PMS7003;62867;52.038;29.256;2023-08-06T20:05:19;5.4;5.4;4.2
74434;PMS7003;62867;52.038;29.256;2023-08-06T20:11:07;6;5.5;3.8
74434;PMS7003;62867;52.038;29.256;2023-08-06T20:15:21;5.4;5.4;4
74434;PMS7003;62867;52.038;29.256;2023-08-06T20:20:47;6;5.6;3.8
74434;PMS7003;62867;52.038;29.256;2023-08-06T20:25:19;4.8;4.8;3.4
74434;PMS7003;62867;52.038;29.256;2023-08-06T20:30:49;5;5;3.8
74434;PMS7003;62867;52.038;29.256;2023-08-06T20:35:49;7.2;6.4;4.2
74434;PMS7003;62867;52.038;29.256;2023-08-06T20:40:40;5.4;5.2;3.8
74434;PMS7003;62867;52.038;29.256;2023-08-06T20:45:41;5.8;5.8;4.4
74434;PMS7003;62867;52.038;29.256;2023-08-06T20:50:19;5.8;5.6;4.2
74434;PMS7003;62867;52.038;29.256;2023-08-06T20:55:26;6.4;5.6;4.2
74434;PMS7003;62867;52.038;29.256;2023-08-06T21:00:19;5;5;3.4
74434;PMS7003;62867;52.038;29.256;2023-08-06T21:06:07;5.8;5.6;4.4
74434;PMS7003;62867;52.038;29.256;2023-08-06T21:10:49;6.3;6.3;4.3
74434;PMS7003;62867;52.038;29.256;2023-08-06T21:16:07;6;6;3.8
74434;PMS7003;62867;52.038;29.256;2023-08-06T21:20:41;6;6;3.6
74434;PMS7003;62867;52.038;29.256;2023-08-06T21:25:19;5.2;4.8;3.6
74434;PMS7003;62867;52.038;29.256;2023-08-06T21:31:08;6.6;6.4;4.4
74434;PMS7003;62867;52.038;29.256;2023-08-06T21:35:52;5.8;5.2;4
74434;PMS7003;62867;52.038;29.256;2023-08-06T21:40:19;6.2;5.8;4
74434;PMS7003;62867;52.038;29.256;2023-08-06T21:45:59;7;6.4;4
74434;PMS7003;62867;52.038;29.256;2023-08-06T21:50:59;5.6;5;3.8
74434;PMS7003;62867;52.038;29.256;2023-08-06T21:55:28;6.2;5.6;4.2
74434;PMS7003;62867;52.038;29.256;2023-08-06T22:00:19;6.8;6;4.4
74434;PMS7003;62867;52.038;29.256;2023-08-06T22:06:07;6.8;5.6;4.4
74434;PMS7003;62867;52.038;29.256;2023-08-06T22:11:03;5.5;5.5;4.3
74434;PMS7003;62867;52.038;29.256;2023-08-06T22:15:25;6.8;5.2;3.6
74434;PMS7003;62867;52.038;29.256;2023-08-06T22:20:26;6;5;3.4
74434;PMS7003;62867;52.038;29.256;2023-08-06T22:26:05;4;3.8;3
74434;PMS7003;62867;52.038;29.256;2023-08-06T22:30:19;7;6;3.4
74434;PMS7003;62867;52.038;29.256;2023-08-06T22:35:39;5.6;5.2;3.4
74434;PMS7003;62867;52.038;29.256;2023-08-06T22:40:49;5.4;5.2;3.8
74434;PMS7003;62867;52.038;29.256;2023-08-06T22:45:55;5;4.6;3
74434;PMS7003;62867;52.038;29.256;2023-08-06T22:51:05;7;5.6;4.4
74434;PMS7003;62867;52.038;29.256;2023-08-06T22:55:39;5.6;4.4;3.2
74434;PMS7003;62867;52.038;29.256;2023-08-06T23:01:05;5.8;5.6;3.8
74434;PMS7003;62867;52.038;29.256;2023-08-06T23:05:25;5.6;5.2;4
74434;PMS7003;62867;52.038;29.256;2023-08-06T23:11:05;6;5.4;4
74434;PMS7003;62867;52.038;29.256;2023-08-06T23:15:49;6.5;5.3;3.5
74434;PMS7003;62867;52.038;29.256;2023-08-06T23:20:55;6.2;5.6;3.8
74434;PMS7003;62867;52.038;29.256;2023-08-06T23:25:49;6.4;5.8;4
74434;PMS7003;62867;52.038;29.256;2023-08-06T23:30:49;6.6;5.6;4.2
74434;PMS7003;62867;52.038;29.256;2023-08-06T23:35:33;5.8;5.4;3.8
74434;PMS7003;62867;52.038;29.256;2023-08-06T23:40:49;5.4;5.2;3.4
74434;PMS7003;62867;52.038;29.256;2023-08-06T23:46:05;5.2;4.8;3.8
74434;PMS7003;62867;52.038;29.256;2023-08-06T23:50:33;5.8;5.2;3.6
74434;PMS7003;62867;52.038;29.256;2023-08-06T23:56:05;6.4;5.4;4.2
